Time;durP1;ratioP1;P1;durP2;ratioP2;P2;SDS_P1;SDS_P2;PMS_P1;PMS_P2;Temp;Humidity;BMP_temperature;BMP_pressure;BME280_temperature;BME280_humidity;BME280_pressure;Samples;Min_cycle;Max_cycle;Signal;HPM_P1;HPM_P2
2021/09/04 00:00:33;;;;;;;11.83;8.10;;;15.40;99.90;;;;;;4992312;28;20909;-61
2021/09/04 00:03:00;;;;;;;9.33;7.40;;;15.40;99.90;;;;;;4992517;28;20524;-61
2021/09/04 00:05:28;;;;;;;9.27;7.30;;;15.40;99.90;;;;;;4992102;28;20530;-62
2021/09/04 00:07:55;;;;;;;9.67;7.67;;;15.40;99.90;;;;;;4991899;28;20514;-61
2021/09/04 00:10:23;;;;;;;12.27;7.50;;;15.40;99.90;;;;;;4991862;28;20525;-61
2021/09/04 00:12:50;;;;;;;10.57;7.23;;;15.40;99.90;;;;;;4992146;28;20458;-61
2021/09/04 00:15:17;;;;;;;14.03;7.80;;;15.30;99.90;;;;;;4992302;28;20446;-61
2021/09/04 00:17:45;;;;;;;10.30;7.83;;;15.40;99.90;;;;;;4992601;28;20450;-61
2021/09/04 00:20:13;;;;;;;7.90;6.80;;;15.40;99.90;;;;;;4992200;28;21109;-61
2021/09/04 00:22:40;;;;;;;8.50;7.00;;;15.40;99.90;;;;;;4986577;28;20451;-61
2021/09/04 00:25:11;;;;;;;10.87;7.57;;;15.40;99.90;;;;;;4989735;28;20838;-62
2021/09/04 00:27:39;;;;;;;10.30;7.20;;;15.30;99.90;;;;;;4992849;28;20486;-61
2021/09/04 00:30:07;;;;;;;9.17;7.40;;;15.20;99.90;;;;;;4991768;28;20532;-62
2021/09/04 00:32:34;;;;;;;9.23;7.60;;;15.20;99.90;;;;;;4992474;28;20450;-62
2021/09/04 00:35:02;;;;;;;8.10;6.77;;;15.20;99.90;;;;;;4991921;28;20454;-61
2021/09/04 00:37:29;;;;;;;11.00;7.20;;;15.30;99.90;;;;;;4992855;28;20505;-62
2021/09/04 00:39:56;;;;;;;9.07;6.93;;;15.20;99.90;;;;;;4991728;28;20475;-62
2021/09/04 00:42:23;;;;;;;14.77;7.93;;;15.20;99.90;;;;;;4992436;28;20842;-61
2021/09/04 00:44:50;;;;;;;8.60;7.17;;;15.20;99.90;;;;;;4992282;28;20459;-62
2021/09/04 00:47:17;;;;;;;10.43;7.60;;;15.10;99.90;;;;;;4992225;28;20518;-61
2021/09/04 00:49:44;;;;;;;11.30;7.30;;;15.10;99.90;;;;;;4991827;28;20478;-62
2021/09/04 00:52:13;;;;;;;10.03;7.10;;;15.10;99.90;;;;;;4991857;28;20459;-62
2021/09/04 00:54:40;;;;;;;9.27;7.50;;;15.20;99.90;;;;;;4992090;28;20571;-63
2021/09/04 00:57:08;;;;;;;11.17;7.50;;;15.10;99.90;;;;;;4991545;28;20454;-61
2021/09/04 00:59:35;;;;;;;9.63;7.03;;;15.00;99.90;;;;;;4991923;28;20610;-61
2021/09/04 01:02:02;;;;;;;13.13;7.90;;;15.10;99.90;;;;;;4991609;28;20466;-61
2021/09/04 01:04:29;;;;;;;9.93;7.87;;;14.90;99.90;;;;;;4991783;28;20469;-62
2021/09/04 01:06:57;;;;;;;11.07;8.43;;;14.70;99.90;;;;;;4991958;28;21044;-62
2021/09/04 01:09:25;;;;;;;9.73;7.93;;;14.80;99.90;;;;;;4991529;28;20540;-61
2021/09/04 01:11:53;;;;;;;11.73;7.93;;;14.80;99.90;;;;;;4991433;28;20878;-62
2021/09/04 01:14:20;;;;;;;10.77;7.60;;;14.80;99.90;;;;;;4991256;28;20458;-62
2021/09/04 01:16:47;;;;;;;10.10;7.43;;;14.80;99.90;;;;;;4991772;28;20451;-61
2021/09/04 01:19:14;;;;;;;12.90;7.97;;;14.80;99.90;;;;;;4991713;28;20474;-62
2021/09/04 01:21:41;;;;;;;10.23;8.00;;;14.80;99.90;;;;;;4991403;28;20450;-61
2021/09/04 01:24:09;;;;;;;10.50;7.43;;;14.90;99.90;;;;;;4991372;28;20462;-61
2021/09/04 01:26:37;;;;;;;9.93;7.77;;;14.90;99.90;;;;;;4995527;28;20842;-61
2021/09/04 01:29:05;;;;;;;14.60;7.77;;;14.80;99.90;;;;;;4995003;28;20517;-61
2021/09/04 01:31:32;;;;;;;10.40;7.50;;;14.80;99.90;;;;;;4994931;28;20454;-61
2021/09/04 01:33:59;;;;;;;9.80;7.87;;;14.80;99.90;;;;;;4994534;28;20450;-61
2021/09/04 01:36:32;;;;;;;8.77;7.30;;;14.80;99.90;;;;;;4995115;28;20496;-61
2021/09/04 01:39:00;;;;;;;9.90;7.70;;;14.80;99.90;;;;;;4994964;28;20478;-62
2021/09/04 01:41:27;;;;;;;9.07;6.63;;;14.80;99.90;;;;;;4994813;28;20998;-61
2021/09/04 01:43:56;;;;;;;12.80;8.30;;;14.80;99.90;;;;;;4995034;28;20458;-62
2021/09/04 01:46:23;;;;;;;15.10;8.77;;;14.70;99.90;;;;;;4994689;28;20447;-61
2021/09/04 01:48:50;;;;;;;10.37;7.40;;;14.70;99.90;;;;;;4994756;28;20450;-62
2021/09/04 01:51:17;;;;;;;12.50;8.77;;;14.80;99.90;;;;;;4994651;28;21022;-62
2021/09/04 01:53:45;;;;;;;13.47;8.60;;;14.80;99.90;;;;;;4994815;28;20462;-62
2021/09/04 01:56:13;;;;;;;12.60;7.73;;;14.70;99.90;;;;;;4994023;28;21023;-61
2021/09/04 01:58:40;;;;;;;11.57;7.93;;;14.70;99.90;;;;;;4994857;28;20451;-62
2021/09/04 02:01:08;;;;;;;10.27;8.10;;;14.80;99.90;;;;;;4994829;28;20474;-61
2021/09/04 02:03:36;;;;;;;10.77;8.60;;;14.80;99.90;;;;;;4994496;28;20462;-61
2021/09/04 02:06:03;;;;;;;11.03;8.70;;;14.80;99.90;;;;;;4994566;28;20478;-61
2021/09/04 02:08:30;;;;;;;9.33;7.60;;;14.70;99.90;;;;;;4993769;28;20540;-61
2021/09/04 02:10:58;;;;;;;9.27;7.40;;;14.70;99.90;;;;;;4994144;28;20474;-61
2021/09/04 02:13:25;;;;;;;12.77;8.30;;;14.80;99.90;;;;;;4994226;28;20945;-61
2021/09/04 02:15:52;;;;;;;12.43;9.50;;;14.70;99.90;;;;;;4995014;28;20876;-62
2021/09/04 02:18:21;;;;;;;13.00;8.90;;;14.70;99.90;;;;;;4994317;28;21170;-61
2021/09/04 02:20:48;;;;;;;16.97;8.50;;;14.70;99.90;;;;;;4994014;28;20984;-61
2021/09/04 02:23:16;;;;;;;11.57;8.50;;;14.70;99.90;;;;;;4993314;28;20458;-61
2021/09/04 02:25:43;;;;;;;12.07;8.97;;;14.60;99.90;;;;;;4975160;28;20455;-61
2021/09/04 02:28:11;;;;;;;13.73;9.07;;;14.60;99.90;;;;;;4983289;28;20471;-62
2021/09/04 02:30:38;;;;;;;10.40;8.60;;;14.50;99.90;;;;;;4993802;28;20474;-61
2021/09/04 02:33:05;;;;;;;10.73;8.43;;;14.60;99.90;;;;;;4994241;28;20815;-61
2021/09/04 02:35:33;;;;;;;11.33;8.27;;;14.50;99.90;;;;;;4993911;28;20462;-63
2021/09/04 02:38:02;;;;;;;11.00;8.47;;;14.50;99.90;;;;;;4993553;28;20450;-61
2021/09/04 02:40:29;;;;;;;12.00;8.60;;;14.50;99.90;;;;;;4993363;28;20501;-62
2021/09/04 02:42:56;;;;;;;10.00;7.93;;;14.50;99.90;;;;;;4994101;28;20887;-63
2021/09/04 02:45:23;;;;;;;13.03;8.90;;;14.50;99.90;;;;;;4993590;28;20446;-62
2021/09/04 02:47:50;;;;;;;10.13;7.57;;;14.60;99.90;;;;;;4992578;28;20564;-61
2021/09/04 02:50:17;;;;;;;11.07;7.90;;;14.50;99.90;;;;;;4992079;28;20524;-62
2021/09/04 02:52:45;;;;;;;11.20;8.17;;;14.50;99.90;;;;;;4993983;28;20980;-63
2021/09/04 02:55:12;;;;;;;8.90;6.90;;;14.50;99.90;;;;;;4993610;28;20477;-61
2021/09/04 02:57:40;;;;;;;11.47;8.10;;;14.40;99.90;;;;;;4993732;28;20451;-61
2021/09/04 03:00:08;;;;;;;11.40;7.67;;;14.40;99.90;;;;;;4992219;28;20466;-61
2021/09/04 03:02:35;;;;;;;10.30;7.53;;;14.30;99.90;;;;;;4991477;28;21209;-61
2021/09/04 03:05:06;;;;;;;10.40;7.57;;;14.30;99.90;;;;;;4991936;28;20470;-61
2021/09/04 03:07:33;;;;;;;12.13;8.70;;;14.30;99.90;;;;;;4992394;28;20514;-62
2021/09/04 03:10:01;;;;;;;12.30;8.80;;;14.30;99.90;;;;;;4991592;28;20537;-62
2021/09/04 03:12:28;;;;;;;11.77;8.00;;;14.30;99.90;;;;;;4992998;28;20442;-61
2021/09/04 03:14:55;;;;;;;10.73;8.27;;;14.30;99.90;;;;;;4992321;28;20458;-62
2021/09/04 03:17:23;;;;;;;10.50;8.13;;;14.30;99.90;;;;;;4992047;28;20454;-61
2021/09/04 03:19:50;;;;;;;11.37;7.80;;;14.30;99.90;;;;;;4992768;28;20589;-62
2021/09/04 03:22:17;;;;;;;11.00;8.20;;;14.20;99.90;;;;;;4992691;28;20939;-63
2021/09/04 03:24:44;;;;;;;10.57;8.40;;;14.20;99.90;;;;;;4991777;28;20501;-61
2021/09/04 03:27:12;;;;;;;14.67;8.33;;;14.10;99.90;;;;;;4992535;28;20483;-62
2021/09/04 03:29:39;;;;;;;13.13;8.23;;;14.10;99.90;;;;;;4992389;28;20478;-61
2021/09/04 03:32:07;;;;;;;12.03;8.80;;;14.10;99.90;;;;;;4989866;28;20877;-61
2021/09/04 03:34:34;;;;;;;12.10;8.70;;;14.10;99.90;;;;;;4991583;28;21026;-61
2021/09/04 03:37:02;;;;;;;11.40;9.03;;;14.10;99.90;;;;;;4986991;28;20450;-61
2021/09/04 03:39:29;;;;;;;12.40;9.23;;;14.10;99.90;;;;;;4986203;28;20479;-61
2021/09/04 03:41:56;;;;;;;11.67;8.90;;;14.10;99.90;;;;;;4991117;28;20450;-61
2021/09/04 03:44:24;;;;;;;13.77;9.37;;;14.00;99.90;;;;;;4988580;28;20486;-61
2021/09/04 03:46:51;;;;;;;13.20;8.97;;;13.90;99.90;;;;;;4989628;28;20462;-61
2021/09/04 03:49:18;;;;;;;14.07;8.83;;;13.90;99.90;;;;;;4990406;28;20490;-61
2021/09/04 03:51:46;;;;;;;11.53;8.43;;;13.90;99.90;;;;;;4991292;28;20501;-62
2021/09/04 03:54:13;;;;;;;12.20;8.10;;;13.90;99.90;;;;;;4991484;28;20517;-61
2021/09/04 03:56:40;;;;;;;12.27;9.67;;;13.90;99.90;;;;;;4991748;28;20470;-61
2021/09/04 03:59:07;;;;;;;12.10;9.17;;;13.90;99.90;;;;;;4990890;28;20470;-61
2021/09/04 04:01:36;;;;;;;11.47;8.23;;;13.90;99.90;;;;;;4987565;28;20475;-61
2021/09/04 04:04:03;;;;;;;13.17;8.43;;;13.90;99.90;;;;;;4990915;28;20458;-60
2021/09/04 04:06:30;;;;;;;13.50;9.47;;;13.90;99.90;;;;;;4990633;28;20467;-59
2021/09/04 04:08:57;;;;;;;12.70;8.30;;;13.90;99.90;;;;;;4990170;28;20489;-59
2021/09/04 04:11:24;;;;;;;10.37;8.33;;;13.90;99.90;;;;;;4989784;28;20462;-60
2021/09/04 04:13:51;;;;;;;10.63;7.50;;;13.90;99.90;;;;;;4990730;28;20450;-60
2021/09/04 04:16:18;;;;;;;10.30;8.47;;;14.00;99.90;;;;;;4990607;28;20446;-59
2021/09/04 04:18:47;;;;;;;12.33;9.00;;;14.00;99.90;;;;;;4990108;28;21338;-59
2021/09/04 04:21:14;;;;;;;13.97;8.83;;;13.90;99.90;;;;;;4987340;28;20454;-60
2021/09/04 04:23:41;;;;;;;11.37;8.30;;;13.90;99.90;;;;;;4988834;28;20459;-59
2021/09/04 04:26:08;;;;;;;11.77;8.70;;;13.90;99.90;;;;;;4990599;28;21023;-59
2021/09/04 04:28:35;;;;;;;9.80;7.20;;;13.90;99.90;;;;;;4991114;28;20529;-59
2021/09/04 04:31:03;;;;;;;11.00;8.07;;;13.90;99.90;;;;;;4986142;28;20895;-59
2021/09/04 04:33:30;;;;;;;12.67;9.27;;;14.00;99.90;;;;;;4990328;28;20462;-59
2021/09/04 04:35:59;;;;;;;12.77;9.20;;;14.00;99.90;;;;;;4986158;28;20963;-59
2021/09/04 04:38:26;;;;;;;15.30;10.30;;;13.90;99.90;;;;;;4990984;28;20451;-61
2021/09/04 04:40:54;;;;;;;11.87;9.10;;;13.90;99.90;;;;;;4990959;28;20467;-61
2021/09/04 04:43:20;;;;;;;13.27;9.53;;;13.80;99.90;;;;;;4990528;28;20461;-61
2021/09/04 04:45:47;;;;;;;13.73;9.73;;;13.80;99.90;;;;;;4990889;28;20496;-61
2021/09/04 04:48:15;;;;;;;11.27;9.03;;;13.80;99.90;;;;;;4990352;28;20862;-62
2021/09/04 04:50:42;;;;;;;12.57;9.57;;;13.80;99.90;;;;;;4990682;28;20544;-61
2021/09/04 04:53:11;;;;;;;15.43;9.67;;;13.90;99.90;;;;;;4990949;28;20803;-61
2021/09/04 04:55:38;;;;;;;12.83;9.50;;;13.70;99.90;;;;;;4989271;28;20467;-61
2021/09/04 04:58:05;;;;;;;11.93;9.63;;;13.80;99.90;;;;;;4990920;28;20442;-61
2021/09/04 05:00:32;;;;;;;16.33;9.70;;;13.80;99.90;;;;;;4992664;28;20525;-61
2021/09/04 05:02:59;;;;;;;13.70;9.73;;;13.90;99.90;;;;;;4994918;28;20513;-62
2021/09/04 05:05:26;;;;;;;13.50;10.63;;;13.80;99.90;;;;;;4994613;28;20450;-61
2021/09/04 05:07:53;;;;;;;12.97;9.80;;;13.80;99.90;;;;;;4994558;28;20486;-61
2021/09/04 05:10:22;;;;;;;10.40;8.30;;;13.80;99.90;;;;;;4993672;28;20979;-62
2021/09/04 05:12:49;;;;;;;14.80;10.00;;;13.80;99.90;;;;;;4994064;28;20454;-61
2021/09/04 05:15:16;;;;;;;13.80;9.77;;;13.70;99.90;;;;;;4994430;28;20454;-61
2021/09/04 05:17:43;;;;;;;14.77;10.83;;;13.70;99.90;;;;;;4994428;28;20545;-61
2021/09/04 05:20:13;;;;;;;13.67;9.67;;;13.80;99.90;;;;;;4994324;28;20980;-62
2021/09/04 05:22:42;;;;;;;12.67;9.60;;;13.90;99.90;;;;;;4994062;28;20454;-61
2021/09/04 05:25:10;;;;;;;13.53;9.63;;;13.90;99.90;;;;;;4993109;28;20456;-61
2021/09/04 05:27:39;;;;;;;13.65;9.75;;;14.00;99.90;;;;;;4987178;28;20463;-61
2021/09/04 05:30:08;;;;;;;12.57;9.77;;;14.10;99.90;;;;;;4993174;28;20234;-60
2021/09/04 05:32:35;;;;;;;12.80;10.47;;;14.20;99.90;;;;;;4992983;28;20454;-60
2021/09/04 05:35:06;;;;;;;12.60;9.17;;;14.20;99.90;;;;;;4993740;28;20451;-60
2021/09/04 05:37:33;;;;;;;15.33;9.20;;;14.30;99.90;;;;;;4992899;28;20454;-60
2021/09/04 05:40:00;;;;;;;16.20;9.67;;;14.40;99.90;;;;;;4992994;28;20468;-62
2021/09/04 05:42:27;;;;;;;12.90;9.10;;;14.50;99.90;;;;;;4993443;28;20458;-61
2021/09/04 05:44:55;;;;;;;10.57;8.33;;;15.10;99.90;;;;;;4989449;28;20454;-61
2021/09/04 05:47:23;;;;;;;15.07;8.63;;;16.00;99.90;;;;;;4992844;28;20455;-61
2021/09/04 05:49:50;;;;;;;13.33;8.67;;;16.80;99.90;;;;;;4992813;28;20512;-62
2021/09/04 05:52:17;;;;;;;10.83;7.90;;;17.70;99.90;;;;;;4993194;28;20457;-61
2021/09/04 05:54:44;;;;;;;11.03;8.17;;;18.20;99.90;;;;;;4992004;28;20449;-61
2021/09/04 05:57:11;;;;;;;10.63;7.60;;;18.90;99.90;;;;;;4994083;28;21139;-61
2021/09/04 05:59:39;;;;;;;9.97;6.87;;;19.60;99.90;;;;;;4993610;28;20849;-61
2021/09/04 06:02:08;;;;;;;10.47;8.00;;;20.20;99.90;;;;;;4993138;28;20538;-60
2021/09/04 06:04:36;;;;;;;8.93;7.10;;;20.50;99.90;;;;;;4993089;28;20493;-61
2021/09/04 06:07:04;;;;;;;8.90;6.50;;;20.80;99.90;;;;;;4992458;28;20483;-61
2021/09/04 06:09:31;;;;;;;9.10;7.67;;;21.10;99.90;;;;;;4992312;28;20580;-61
2021/09/04 06:11:58;;;;;;;12.03;8.63;;;21.30;99.90;;;;;;4990726;28;21142;-62
2021/09/04 06:14:25;;;;;;;10.57;6.87;;;21.60;99.90;;;;;;4992800;28;20581;-61
2021/09/04 06:16:52;;;;;;;7.97;6.37;;;22.00;99.90;;;;;;4992315;28;20940;-62
2021/09/04 06:19:21;;;;;;;7.63;6.00;;;22.40;99.90;;;;;;4992312;28;21059;-61
2021/09/04 06:21:49;;;;;;;8.67;6.37;;;22.60;99.90;;;;;;4992170;28;20465;-62
2021/09/04 06:24:16;;;;;;;6.80;5.97;;;23.00;99.90;;;;;;4992671;28;20450;-61
2021/09/04 06:26:43;;;;;;;8.03;6.60;;;23.10;99.90;;;;;;4988165;28;20455;-61
2021/09/04 06:29:10;;;;;;;10.37;5.97;;;23.20;99.90;;;;;;4992606;28;20486;-62
2021/09/04 06:31:37;;;;;;;7.43;6.07;;;23.40;99.90;;;;;;4988971;28;20532;-62
2021/09/04 06:34:04;;;;;;;9.70;5.87;;;23.40;99.90;;;;;;4991728;28;21015;-63
2021/09/04 06:36:32;;;;;;;9.17;6.10;;;23.60;99.90;;;;;;4993577;28;20952;-62
2021/09/04 06:38:59;;;;;;;6.67;5.70;;;24.00;99.90;;;;;;4993089;28;20509;-61
2021/09/04 06:41:26;;;;;;;7.23;6.30;;;24.20;99.90;;;;;;4992451;28;20450;-61
2021/09/04 06:43:53;;;;;;;5.93;5.17;;;24.60;99.90;;;;;;4993186;28;20521;-61
2021/09/04 06:46:20;;;;;;;6.67;5.13;;;25.10;99.90;;;;;;4993162;28;20455;-61
2021/09/04 06:48:47;;;;;;;5.87;5.27;;;25.40;99.90;;;;;;4993321;28;20486;-63
2021/09/04 06:51:14;;;;;;;6.30;5.70;;;25.50;99.90;;;;;;4992336;28;20447;-61
2021/09/04 06:53:43;;;;;;;6.63;6.03;;;25.60;99.90;;;;;;4993029;28;20502;-61
2021/09/04 06:56:10;;;;;;;5.20;4.70;;;25.80;99.90;;;;;;4993368;28;20458;-62
2021/09/04 06:58:37;;;;;;;6.47;5.67;;;25.90;99.90;;;;;;4992998;28;20509;-61
2021/09/04 07:01:04;;;;;;;8.10;6.40;;;26.00;99.90;;;;;;4993146;28;20529;-62
2021/09/04 07:03:31;;;;;;;7.40;5.73;;;26.00;99.90;;;;;;4992908;28;20459;-62
2021/09/04 07:05:58;;;;;;;6.00;5.40;;;25.90;99.90;;;;;;4992983;28;20458;-62
2021/09/04 07:08:25;;;;;;;6.10;5.50;;;26.30;99.90;;;;;;4993156;28;20926;-63
2021/09/04 07:10:54;;;;;;;7.10;5.50;;;26.40;99.90;;;;;;4992787;28;21198;-63
2021/09/04 07:13:21;;;;;;;6.10;5.50;;;26.60;99.90;;;;;;4993544;28;20524;-63
2021/09/04 07:15:48;;;;;;;6.37;5.77;;;26.80;99.90;;;;;;4993320;28;20460;-64
2021/09/04 07:18:15;;;;;;;6.50;5.90;;;27.10;99.90;;;;;;4993024;28;20454;-64
2021/09/04 07:20:42;;;;;;;6.80;5.23;;;27.10;99.90;;;;;;4992418;28;20478;-64
2021/09/04 07:23:09;;;;;;;6.77;6.07;;;27.00;99.90;;;;;;4992841;28;20446;-64
2021/09/04 07:25:36;;;;;;;7.20;6.00;;;27.10;99.90;;;;;;4992624;28;20458;-64
2021/09/04 07:28:06;;;;;;;7.80;6.00;;;27.00;99.90;;;;;;4992876;28;20975;-63
2021/09/04 07:30:33;;;;;;;9.93;6.13;;;27.10;99.90;;;;;;4992673;28;20471;-63
2021/09/04 07:33:00;;;;;;;5.93;5.43;;;27.00;99.90;;;;;;4993079;28;20442;-63
2021/09/04 07:35:27;;;;;;;8.63;6.23;;;26.70;99.90;;;;;;4992549;28;20447;-63
2021/09/04 07:37:54;;;;;;;6.47;5.83;;;27.00;99.90;;;;;;4992743;28;20451;-63
2021/09/04 07:40:22;;;;;;;7.10;5.90;;;26.70;99.90;;;;;;4992756;28;20462;-63
2021/09/04 07:42:49;;;;;;;7.67;5.93;;;26.70;99.90;;;;;;4992881;28;20982;-63
2021/09/04 07:45:17;;;;;;;5.77;4.97;;;26.70;99.90;;;;;;4992359;28;20469;-65
2021/09/04 07:47:44;;;;;;;6.03;5.23;;;26.70;99.90;;;;;;4992451;28;20956;-64
2021/09/04 07:50:14;;;;;;;5.83;5.30;;;26.90;99.90;;;;;;4992152;28;20494;-63
2021/09/04 07:52:41;;;;;;;7.47;5.80;;;27.30;99.90;;;;;;4992394;28;20541;-63
2021/09/04 07:55:08;;;;;;;5.60;5.20;;;27.50;99.90;;;;;;4991751;28;20521;-65
2021/09/04 07:57:36;;;;;;;7.30;5.27;;;27.70;99.90;;;;;;4992158;28;20465;-63
2021/09/04 08:00:03;;;;;;;7.07;5.47;;;27.70;99.90;;;;;;4992639;28;20843;-63
2021/09/04 08:02:31;;;;;;;5.77;5.17;;;27.20;99.90;;;;;;4992744;28;20457;-64
2021/09/04 08:04:58;;;;;;;5.03;4.60;;;27.40;99.90;;;;;;4992642;28;20450;-64
2021/09/04 08:07:25;;;;;;;10.73;4.77;;;27.70;99.90;;;;;;4991997;28;20881;-63
2021/09/04 08:09:52;;;;;;;8.10;4.53;;;27.90;99.90;;;;;;4992298;28;20548;-64
2021/09/04 08:12:19;;;;;;;5.60;5.10;;;27.90;99.90;;;;;;4992197;28;20454;-64
2021/09/04 08:14:46;;;;;;;6.03;5.10;;;27.50;99.90;;;;;;4991819;28;20509;-64
2021/09/04 08:17:13;;;;;;;5.70;5.20;;;27.20;99.90;;;;;;4991824;28;20508;-64
2021/09/04 08:19:42;;;;;;;7.63;5.00;;;27.20;99.90;;;;;;4983669;28;20472;-63
2021/09/04 08:22:09;;;;;;;5.30;4.80;;;27.50;99.90;;;;;;4985891;28;20948;-64
2021/09/04 08:24:36;;;;;;;5.90;5.00;;;27.80;99.90;;;;;;4976635;28;20514;-63
2021/09/04 08:27:04;;;;;;;5.40;4.90;;;28.00;99.90;;;;;;4986056;28;20944;-64
2021/09/04 08:29:31;;;;;;;6.50;5.30;;;28.20;99.90;;;;;;4991772;28;20944;-64
2021/09/04 08:31:58;;;;;;;7.83;5.57;;;28.60;99.90;;;;;;4988429;28;20803;-64
2021/09/04 08:34:25;;;;;;;7.03;4.70;;;28.10;99.90;;;;;;4990299;28;20501;-63
2021/09/04 08:36:53;;;;;;;5.20;4.77;;;27.30;99.90;;;;;;4994927;28;20509;-63
2021/09/04 08:39:20;;;;;;;6.13;4.90;;;27.50;99.90;;;;;;4995762;28;20470;-63
2021/09/04 08:41:47;;;;;;;5.90;5.30;;;27.00;99.90;;;;;;4988746;28;20451;-63
2021/09/04 08:44:14;;;;;;;4.87;4.47;;;26.70;99.90;;;;;;4995937;28;20450;-64
2021/09/04 08:46:42;;;;;;;4.93;4.40;;;26.20;99.90;;;;;;4995820;28;20454;-63
2021/09/04 08:49:09;;;;;;;5.50;4.80;;;26.70;99.90;;;;;;4995167;28;20496;-63
2021/09/04 08:51:36;;;;;;;6.13;5.17;;;27.30;99.90;;;;;;4995069;28;20509;-63
2021/09/04 08:54:05;;;;;;;5.47;4.97;;;27.30;99.90;;;;;;4994063;28;20511;-63
2021/09/04 08:56:32;;;;;;;6.20;5.53;;;27.70;99.90;;;;;;4996339;28;20868;-63
2021/09/04 08:59:00;;;;;;;6.23;5.63;;;28.10;99.90;;;;;;4995759;28;20505;-64
2021/09/04 09:01:29;;;;;;;5.97;5.37;;;28.40;99.90;;;;;;4995866;28;20504;-63
2021/09/04 09:03:57;;;;;;;8.43;6.47;;;28.30;99.90;;;;;;4995930;28;20504;-63
2021/09/04 09:06:26;;;;;;;6.13;5.50;;;27.60;99.90;;;;;;4994638;28;20501;-63
2021/09/04 09:08:53;;;;;;;6.47;5.83;;;26.30;99.90;;;;;;4994398;28;20458;-62
2021/09/04 09:11:22;;;;;;;6.50;5.90;;;26.40;99.90;;;;;;4983213;28;20455;-63
2021/09/04 09:13:51;;;;;;;5.87;5.37;;;26.90;99.90;;;;;;4989649;28;20450;-62
2021/09/04 09:16:20;;;;;;;6.93;5.47;;;27.50;99.90;;;;;;4990897;28;20505;-63
2021/09/04 09:18:57;;;;;;;6.47;5.57;;;28.00;99.90;;;;;;4995139;28;20451;-63
2021/09/04 09:21:30;;;;;;;6.27;5.60;;;28.40;99.90;;;;;;4995454;28;20450;-63
2021/09/04 09:24:08;;;;;;;6.70;5.67;;;28.20;99.90;;;;;;4995632;28;20492;-63
2021/09/04 09:26:45;;;;;;;7.57;5.50;;;27.60;99.90;;;;;;4994864;28;20458;-63
2021/09/04 09:29:21;;;;;;;7.43;6.10;;;27.30;99.90;;;;;;4994744;28;20996;-63
2021/09/04 09:31:50;;;;;;;6.27;5.03;;;26.40;99.90;;;;;;4992492;28;20948;-63
2021/09/04 09:34:17;;;;;;;7.80;5.30;;;26.50;99.90;;;;;;4976437;28;20500;-63
2021/09/04 09:36:49;;;;;;;7.27;5.87;;;27.10;99.90;;;;;;4993231;28;20199;-63
2021/09/04 09:39:16;;;;;;;8.37;5.57;;;26.70;99.90;;;;;;4994764;28;20528;-62
2021/09/04 09:41:50;;;;;;;6.20;5.57;;;26.40;99.90;;;;;;4994636;28;20529;-63
2021/09/04 09:44:21;;;;;;;8.50;6.67;;;26.90;99.90;;;;;;4995131;28;20449;-63
2021/09/04 09:46:50;;;;;;;6.10;5.43;;;26.20;99.90;;;;;;4993341;28;21218;-62
2021/09/04 09:49:17;;;;;;;9.33;7.27;;;25.70;99.90;;;;;;4993644;28;20490;-63
2021/09/04 09:51:45;;;;;;;10.87;7.17;;;26.90;99.90;;;;;;4993420;28;20501;-62
2021/09/04 09:54:13;;;;;;;8.90;6.50;;;27.40;99.90;;;;;;4990503;28;21032;-62
2021/09/04 09:56:41;;;;;;;11.03;7.60;;;26.30;99.90;;;;;;4992682;28;20477;-63
2021/09/04 09:59:12;;;;;;;11.30;8.10;;;26.50;99.90;;;;;;4994560;28;20913;-62
2021/09/04 10:01:41;;;;;;;11.50;8.80;;;27.00;99.90;;;;;;4994396;28;20538;-63
2021/09/04 10:04:11;;;;;;;9.73;8.63;;;27.10;99.90;;;;;;4994495;28;20883;-63
2021/09/04 10:06:39;;;;;;;10.63;9.07;;;27.30;99.90;;;;;;4993788;28;20935;-62
2021/09/04 10:09:07;;;;;;;12.60;10.27;;;27.50;99.90;;;;;;4993868;28;20509;-62
2021/09/04 10:11:38;;;;;;;11.00;9.90;;;26.50;99.90;;;;;;4994336;28;20548;-62
2021/09/04 10:14:06;;;;;;;14.47;9.50;;;25.90;99.90;;;;;;4994530;28;20537;-62
2021/09/04 10:16:37;;;;;;;12.30;9.50;;;25.50;99.90;;;;;;4993264;28;20461;-62
2021/09/04 10:19:05;;;;;;;10.10;9.10;;;26.00;99.90;;;;;;4994073;28;20509;-63
2021/09/04 10:21:38;;;;;;;12.80;10.53;;;26.00;99.90;;;;;;4992531;28;20461;-62
2021/09/04 10:24:07;;;;;;;12.00;9.57;;;24.60;99.90;;;;;;4993798;28;20509;-63
2021/09/04 10:26:36;;;;;;;11.37;8.90;;;24.50;99.90;;;;;;4992841;28;20458;-62
2021/09/04 10:29:06;;;;;;;15.43;10.63;;;25.30;99.90;;;;;;4993872;28;20461;-62
2021/09/04 10:31:45;;;;;;;13.90;10.50;;;25.60;99.90;;;;;;4992165;28;20446;-61
2021/09/04 10:34:13;;;;;;;12.17;9.27;;;25.80;99.90;;;;;;4990336;28;20442;-62
2021/09/04 10:36:55;;;;;;;11.80;9.90;;;26.00;99.90;;;;;;4992749;28;20458;-62
2021/09/04 10:39:22;;;;;;;9.87;8.87;;;26.20;99.90;;;;;;4992397;28;20465;-62
2021/09/04 10:41:50;;;;;;;11.13;8.10;;;26.20;99.90;;;;;;4992380;28;20450;-62
2021/09/04 10:44:24;;;;;;;13.57;9.17;;;26.00;99.90;;;;;;4992563;28;20454;-62
2021/09/04 10:46:52;;;;;;;8.93;8.03;;;26.20;99.90;;;;;;4988895;28;20894;-62
2021/09/04 10:49:41;;;;;;;8.83;7.93;;;25.90;99.90;;;;;;4990850;28;20467;-61
2021/09/04 10:52:08;;;;;;;10.17;8.97;;;26.00;99.90;;;;;;4989464;28;20489;-63
2021/09/04 10:54:59;;;;;;;10.17;8.73;;;25.70;99.90;;;;;;4988409;28;20497;-61
2021/09/04 10:57:27;;;;;;;13.43;9.17;;;25.60;99.90;;;;;;4991293;28;20446;-62
2021/09/04 11:00:08;;;;;;;9.80;8.77;;;25.60;99.90;;;;;;4991979;28;20885;-63
2021/09/04 11:02:46;;;;;;;11.50;9.53;;;25.30;99.90;;;;;;4992078;28;20959;-62
2021/09/04 11:05:47;;;;;;;9.60;8.50;;;25.30;99.90;;;;;;4992008;28;20442;-62
2021/09/04 11:08:27;;;;;;;9.47;8.20;;;25.20;99.90;;;;;;4991833;28;20861;-61
2021/09/04 11:11:15;;;;;;;10.50;9.10;;;25.10;99.90;;;;;;4990457;28;21200;-61
2021/09/04 11:13:42;;;;;;;8.83;7.93;;;24.50;99.90;;;;;;4988610;28;20446;-62
2021/09/04 11:16:44;;;;;;;11.63;8.37;;;24.40;99.90;;;;;;4988709;28;20496;-62
2021/09/04 11:19:15;;;;;;;12.73;8.50;;;24.80;99.90;;;;;;4991660;28;20844;-62
2021/09/04 11:22:09;;;;;;;9.10;8.20;;;25.10;99.90;;;;;;4991424;28;20447;-62
2021/09/04 11:24:38;;;;;;;9.30;8.00;;;24.30;99.90;;;;;;4991917;28;20477;-63
2021/09/04 11:27:11;;;;;;;11.10;8.67;;;24.40;99.90;;;;;;4987763;28;20454;-62
2021/09/04 11:29:44;;;;;;;11.57;9.33;;;24.10;99.90;;;;;;4987614;28;20475;-62
2021/09/04 11:32:13;;;;;;;8.43;7.50;;;23.90;99.90;;;;;;4990419;28;20598;-62
2021/09/04 11:34:52;;;;;;;8.13;7.33;;;24.00;99.90;;;;;;4991675;28;20477;-62
2021/09/04 11:37:28;;;;;;;8.77;6.80;;;24.50;99.90;;;;;;4991413;28;20516;-63
2021/09/04 11:40:00;;;;;;;8.60;7.50;;;24.30;99.90;;;;;;4987446;28;20458;-62
2021/09/04 11:42:28;;;;;;;9.50;6.70;;;24.10;99.90;;;;;;4991120;28;20446;-64
2021/09/04 11:44:58;;;;;;;9.10;6.90;;;24.20;99.90;;;;;;4991119;28;20953;-62
2021/09/04 11:47:26;;;;;;;7.30;6.47;;;24.60;99.90;;;;;;4991187;28;20454;-63
2021/09/04 11:49:57;;;;;;;7.03;6.33;;;24.80;99.90;;;;;;4991341;28;20536;-62
2021/09/04 11:52:28;;;;;;;8.20;6.40;;;24.80;99.90;;;;;;4987428;28;20447;-62
2021/09/04 11:55:08;;;;;;;8.90;7.03;;;24.80;99.90;;;;;;4990380;28;20455;-61
2021/09/04 11:57:38;;;;;;;7.10;6.40;;;24.90;99.90;;;;;;4988537;28;20956;-62
2021/09/04 12:00:09;;;;;;;7.10;6.40;;;25.10;99.90;;;;;;4990948;28;20882;-63
2021/09/04 12:02:37;;;;;;;6.73;6.03;;;25.20;99.90;;;;;;4991124;28;20442;-62
2021/09/04 12:05:09;;;;;;;7.60;6.60;;;25.30;99.90;;;;;;4991067;28;20502;-62
2021/09/04 12:07:37;;;;;;;8.63;7.40;;;25.50;99.90;;;;;;4991025;28;20572;-62
2021/09/04 12:10:09;;;;;;;7.57;6.80;;;25.20;99.90;;;;;;4990870;28;20478;-62
2021/09/04 12:12:38;;;;;;;9.70;7.23;;;25.00;99.90;;;;;;4987729;28;20450;-62
2021/09/04 12:15:10;;;;;;;7.70;6.90;;;24.70;99.90;;;;;;4991293;28;20509;-62
2021/09/04 12:17:48;;;;;;;7.53;6.63;;;23.90;99.90;;;;;;4992261;28;20540;-61
2021/09/04 12:20:17;;;;;;;8.10;6.50;;;23.90;99.90;;;;;;4991348;28;20475;-61
2021/09/04 12:22:44;;;;;;;7.20;6.50;;;24.40;99.90;;;;;;4992182;28;20528;-62
2021/09/04 12:25:33;;;;;;;7.57;6.80;;;24.90;99.90;;;;;;4992338;28;20501;-62
2021/09/04 12:28:03;;;;;;;8.10;5.90;;;24.80;99.90;;;;;;4989102;28;20455;-61
2021/09/04 12:30:30;;;;;;;6.50;5.90;;;25.00;99.90;;;;;;4991752;28;20981;-62
2021/09/04 12:33:10;;;;;;;7.70;5.60;;;24.90;99.90;;;;;;4992234;28;20508;-62
2021/09/04 12:35:59;;;;;;;7.50;6.47;;;25.00;99.90;;;;;;4992569;28;20482;-62
2021/09/04 12:38:27;;;;;;;6.47;5.60;;;25.10;99.90;;;;;;4992231;28;20450;-62
2021/09/04 12:41:10;;;;;;;6.70;5.77;;;25.30;99.90;;;;;;4991908;28;20474;-62
2021/09/04 12:43:53;;;;;;;8.20;6.50;;;25.30;99.90;;;;;;4992209;28;20936;-61
2021/09/04 12:46:28;;;;;;;7.03;6.30;;;25.30;99.90;;;;;;4991113;28;20907;-61
2021/09/04 12:48:56;;;;;;;7.40;6.70;;;25.20;99.90;;;;;;4992154;28;20449;-61